createdAt,value
2016-04-21T00:00:28.661Z,22.15
2016-04-21T00:01:28.445Z,22.15
2016-04-21T00:02:28.605Z,22.14
2016-04-21T00:03:28.608Z,22.16
2016-04-21T00:04:28.453Z,22.15
2016-04-21T00:05:28.628Z,22.15
2016-04-21T00:06:28.615Z,22.11
2016-04-21T00:07:28.618Z,22.16
2016-04-21T00:08:28.636Z,22.09
2016-04-21T00:09:28.639Z,22.11
2016-04-21T00:10:28.642Z,22.14
2016-04-21T00:11:28.660Z,22.12
2016-04-21T00:12:28.678Z,22.09
2016-04-21T00:13:28.666Z,22.2
2016-04-21T00:14:28.683Z,22.15
2016-04-21T00:15:28.702Z,22.11
2016-04-21T00:16:28.688Z,22.09
2016-04-21T00:17:28.707Z,22.15
2016-04-21T00:18:28.710Z,22.11
2016-04-21T00:19:28.713Z,22.04
2016-04-21T00:20:28.716Z,22.12
2016-04-21T00:21:28.734Z,22.12
2016-04-21T00:22:28.721Z,22.12
2016-04-21T00:23:28.739Z,22.12
2016-04-21T00:24:28.757Z,22.11
2016-04-21T00:25:28.759Z,22.11
2016-04-21T00:26:28.762Z,22.11
2016-04-21T00:27:28.781Z,22.11
2016-04-21T00:28:28.800Z,22.04
2016-04-21T00:29:28.787Z,22.09
2016-04-21T00:30:28.773Z,22.04
2016-04-21T00:31:28.792Z,22.16
2016-04-21T00:32:28.794Z,22.12
2016-04-21T00:33:29.313Z,22.11
2016-04-21T00:34:28.800Z,22.09
2016-04-21T00:35:28.818Z,22.08
2016-04-21T00:36:28.837Z,22.08
2016-04-21T00:37:28.839Z,22.04
2016-04-21T00:38:28.841Z,22.07
2016-04-21T00:39:28.861Z,22.09
2016-04-21T00:40:28.878Z,22.14
2016-04-21T00:41:28.865Z,22.07
2016-04-21T00:42:28.868Z,22.07
2016-04-21T00:43:28.886Z,22.05
2016-04-21T00:44:28.874Z,22.02
2016-04-21T00:45:28.908Z,22
2016-04-21T00:46:28.894Z,22.05
2016-04-21T00:47:28.897Z,22.05
2016-04-21T00:48:28.915Z,22
2016-04-21T00:49:28.918Z,22.12
2016-04-21T00:50:28.937Z,22.05
2016-04-21T00:51:28.923Z,22.07
2016-04-21T00:52:28.927Z,22.05
2016-04-21T00:53:28.945Z,21.99
2016-04-21T00:54:28.948Z,22.04
2016-04-21T00:55:28.966Z,22.05
2016-04-21T00:56:28.968Z,22.02
2016-04-21T00:57:28.971Z,22
2016-04-21T00:58:28.973Z,22.02
2016-04-21T00:59:28.992Z,22.02
2016-04-21T01:00:28.995Z,22.02
2016-04-21T01:01:28.998Z,21.99
2016-04-21T01:02:29.016Z,21.9
2016-04-21T01:03:29.034Z,21.99
2016-04-21T01:04:29.052Z,21.9
2016-04-21T01:05:29.085Z,21.99
2016-04-21T01:06:29.149Z,21.89
2016-04-21T01:07:29.181Z,21.96
2016-04-21T01:08:29.229Z,21.9
2016-04-21T01:09:29.313Z,21.9
2016-04-21T01:10:29.318Z,21.99
2016-04-21T01:11:29.321Z,21.86
2016-04-21T01:12:29.356Z,21.86
2016-04-21T01:13:29.390Z,21.97
2016-04-21T01:14:29.390Z,21.86
2016-04-21T01:15:29.430Z,21.9
2016-04-21T01:16:29.422Z,21.97
2016-04-21T01:17:29.447Z,21.97
2016-04-21T01:18:29.439Z,21.96
2016-04-21T01:19:29.463Z,21.99
2016-04-21T01:20:29.484Z,21.97
2016-04-21T01:21:29.503Z,21.99
2016-04-21T01:22:29.498Z,21.86
2016-04-21T01:23:29.502Z,21.9
2016-04-21T01:24:29.522Z,22.02
2016-04-21T01:25:29.511Z,21.93
2016-04-21T01:26:29.529Z,21.96
2016-04-21T01:27:29.533Z,21.9
2016-04-21T01:28:29.536Z,21.96
2016-04-21T01:29:29.555Z,21.93
2016-04-21T01:30:29.558Z,22.02
2016-04-21T01:31:29.561Z,21.9
2016-04-21T01:32:29.564Z,21.86
2016-04-21T01:33:29.582Z,21.9
2016-04-21T01:34:29.585Z,21.89
2016-04-21T01:35:29.588Z,21.96
2016-04-21T01:36:29.623Z,21.9
2016-04-21T01:37:29.609Z,21.89
2016-04-21T01:38:29.597Z,21.85
2016-04-21T01:39:29.615Z,21.89
2016-04-21T01:40:29.618Z,21.96
2016-04-21T01:41:29.651Z,21.92
2016-04-21T01:42:29.623Z,21.89
2016-04-21T01:43:29.641Z,21.86
2016-04-21T01:44:29.644Z,21.85
2016-04-21T01:45:29.662Z,21.92
2016-04-21T01:46:29.650Z,21.89
2016-04-21T01:47:29.668Z,21.96
2016-04-21T01:48:29.670Z,21.89
2016-04-21T01:49:29.689Z,21.92
2016-04-21T01:50:29.691Z,21.83
2016-04-21T01:51:29.710Z,21.89
2016-04-21T01:52:29.728Z,21.85
2016-04-21T01:53:29.716Z,21.76
2016-04-21T01:54:29.750Z,21.85
2016-04-21T01:55:29.736Z,21.85
2016-04-21T01:56:29.724Z,21.78
2016-04-21T01:57:29.741Z,21.8
2016-04-21T01:58:29.744Z,21.85
2016-04-21T01:59:29.746Z,21.85
2016-04-21T02:00:29.749Z,21.86
2016-04-21T02:01:29.768Z,21.86
2016-04-21T02:02:29.771Z,21.83
2016-04-21T02:03:29.774Z,21.82
2016-04-21T02:04:29.807Z,21.8
2016-04-21T02:05:29.826Z,21.82
2016-04-21T02:06:29.843Z,21.78
2016-04-21T02:07:29.847Z,21.8
2016-04-21T02:08:29.834Z,21.82
2016-04-21T02:09:29.868Z,21.78
2016-04-21T02:10:29.854Z,21.8
2016-04-21T02:11:29.857Z,21.82
2016-04-21T02:12:29.859Z,21.8
2016-04-21T02:13:29.895Z,21.8
2016-04-21T02:14:29.882Z,21.78
2016-04-21T02:15:29.853Z,21.8
2016-04-21T02:16:29.886Z,21.78
2016-04-21T02:17:29.873Z,21.83
2016-04-21T02:18:29.891Z,21.74
2016-04-21T02:19:29.894Z,21.78
2016-04-21T02:20:29.898Z,21.8
2016-04-21T02:21:29.916Z,21.83
2016-04-21T02:22:29.918Z,21.74
2016-04-21T02:23:29.936Z,21.78
2016-04-21T02:24:29.925Z,21.8
2016-04-21T02:25:29.958Z,21.76
2016-04-21T02:26:29.961Z,21.71
2016-04-21T02:27:29.963Z,21.78
2016-04-21T02:28:29.950Z,21.73
2016-04-21T02:29:29.984Z,21.76
2016-04-21T02:30:29.971Z,21.76
2016-04-21T02:31:29.974Z,21.77
2016-04-21T02:32:30.007Z,21.82
2016-04-21T02:33:29.979Z,21.76
2016-04-21T02:34:30.013Z,21.73
2016-04-21T02:35:30.015Z,21.78
2016-04-21T02:36:30.019Z,21.77
2016-04-21T02:37:30.021Z,21.76
2016-04-21T02:38:30.040Z,21.76
2016-04-21T02:39:30.011Z,21.66
2016-04-21T02:40:30.060Z,21.78
2016-04-21T02:41:30.032Z,21.66
2016-04-21T02:42:30.034Z,21.67
2016-04-21T02:43:30.053Z,21.73
2016-04-21T02:44:30.087Z,21.76
2016-04-21T02:45:30.058Z,21.71
2016-04-21T02:46:30.093Z,21.68
2016-04-21T02:47:30.095Z,21.67
2016-04-21T02:48:30.098Z,21.74
2016-04-21T02:49:30.100Z,21.74
2016-04-21T02:50:30.119Z,21.66
2016-04-21T02:51:30.106Z,21.64
2016-04-21T02:52:30.124Z,21.7
2016-04-21T02:53:30.127Z,21.68
2016-04-21T02:54:30.130Z,21.66
2016-04-21T02:55:30.132Z,21.73
2016-04-21T02:56:30.150Z,21.66
2016-04-21T02:57:30.152Z,21.64
2016-04-21T02:58:30.156Z,21.67
2016-04-21T02:59:30.189Z,21.66
2016-04-21T03:00:30.177Z,21.62
2016-04-21T03:01:30.195Z,21.68
2016-04-21T03:02:30.182Z,21.66
2016-04-21T03:03:30.200Z,21.7
2016-04-21T03:04:30.188Z,21.67
2016-04-21T03:05:30.221Z,21.62
2016-04-21T03:06:30.193Z,21.7
2016-04-21T03:07:30.226Z,21.67
2016-04-21T03:08:30.213Z,21.7
2016-04-21T03:09:30.233Z,21.68
2016-04-21T03:10:30.235Z,21.68
2016-04-21T03:11:30.254Z,21.73
2016-04-21T03:12:30.256Z,21.66
2016-04-21T03:13:30.259Z,21.59
2016-04-21T03:14:30.262Z,21.68
2016-04-21T03:15:30.264Z,21.59
2016-04-21T03:16:30.282Z,21.61
2016-04-21T03:17:30.300Z,21.68
2016-04-21T03:18:30.287Z,21.68
2016-04-21T03:19:30.290Z,21.61
2016-04-21T03:20:30.292Z,21.62
2016-04-21T03:21:30.316Z,21.61
2016-04-21T03:22:30.307Z,21.62
2016-04-21T03:23:30.357Z,21.58
2016-04-21T03:24:30.312Z,21.62
2016-04-21T03:25:30.346Z,21.59
2016-04-21T03:26:30.334Z,21.62
2016-04-21T03:27:30.351Z,21.66
2016-04-21T03:28:30.340Z,21.67
2016-04-21T03:29:30.373Z,21.64
2016-04-21T03:30:30.359Z,21.62
2016-04-21T03:31:30.378Z,21.61
2016-04-21T03:32:30.381Z,21.66
2016-04-21T03:33:30.384Z,21.64
2016-04-21T03:34:30.402Z,21.64
2016-04-21T03:35:30.405Z,21.62
2016-04-21T03:36:30.408Z,21.51
2016-04-21T03:37:30.426Z,21.64
2016-04-21T03:38:30.288Z,21.58
2016-04-21T03:39:30.431Z,21.64
2016-04-21T03:40:30.418Z,21.51
2016-04-21T03:41:30.452Z,21.66
2016-04-21T03:42:30.439Z,21.7
2016-04-21T03:43:30.442Z,21.53
2016-04-21T03:44:30.460Z,21.62
2016-04-21T03:45:30.478Z,21.56
2016-04-21T03:46:30.465Z,21.58
2016-04-21T03:47:30.484Z,21.53
2016-04-21T03:48:30.486Z,21.58
2016-04-21T03:49:30.489Z,21.62
2016-04-21T03:50:30.491Z,21.58
2016-04-21T03:51:30.494Z,21.53
2016-04-21T03:52:30.543Z,21.56
2016-04-21T03:53:30.563Z,21.52
2016-04-21T03:54:30.518Z,21.52
2016-04-21T03:55:30.521Z,21.55
2016-04-21T03:56:30.555Z,21.64
2016-04-21T03:57:30.526Z,21.55
2016-04-21T03:58:30.576Z,21.59
2016-04-21T03:59:30.562Z,21.64
2016-04-21T04:00:30.581Z,21.52
2016-04-21T04:01:30.568Z,21.58
2016-04-21T04:02:30.587Z,21.55
2016-04-21T04:03:30.605Z,21.59
2016-04-21T04:04:30.592Z,21.59
2016-04-21T04:05:30.611Z,21.53
2016-04-21T04:06:30.597Z,21.59
2016-04-21T04:07:30.631Z,21.55
2016-04-21T04:08:30.633Z,21.52
2016-04-21T04:09:30.606Z,21.61
2016-04-21T04:10:30.639Z,21.59
2016-04-21T04:11:30.627Z,21.59
2016-04-21T04:12:30.644Z,21.61
2016-04-21T04:13:30.647Z,21.62
2016-04-21T04:14:30.680Z,21.62
2016-04-21T04:15:30.668Z,21.66
2016-04-21T04:16:30.671Z,21.56
2016-04-21T04:17:30.658Z,21.61
2016-04-21T04:18:30.661Z,21.53
2016-04-21T04:19:30.694Z,21.62
2016-04-21T04:20:30.713Z,21.56
2016-04-21T04:21:30.700Z,21.62
2016-04-21T04:22:30.703Z,21.61
2016-04-21T04:23:30.612Z,21.59
2016-04-21T04:24:30.708Z,21.56
2016-04-21T04:25:30.742Z,21.59
2016-04-21T04:26:30.729Z,21.55
2016-04-21T04:27:30.748Z,21.61
2016-04-21T04:28:30.765Z,21.58
2016-04-21T04:29:30.754Z,21.51
2016-04-21T04:30:30.756Z,21.59
2016-04-21T04:31:30.743Z,21.62
2016-04-21T04:32:30.776Z,21.62
2016-04-21T04:33:30.764Z,21.55
2016-04-21T04:34:30.781Z,21.52
2016-04-21T04:35:30.801Z,21.53
2016-04-21T04:36:30.819Z,21.55
2016-04-21T04:37:30.822Z,21.61
2016-04-21T04:38:30.825Z,21.59
2016-04-21T04:39:30.827Z,21.59
2016-04-21T04:40:30.814Z,21.56
2016-04-21T04:41:30.847Z,21.59
2016-04-21T04:42:30.835Z,21.62
2016-04-21T04:43:30.853Z,21.53
2016-04-21T04:44:30.841Z,21.59
2016-04-21T04:45:30.858Z,21.59
2016-04-21T04:46:30.877Z,21.62
2016-04-21T04:47:30.926Z,21.59
2016-04-21T04:48:30.883Z,21.61
2016-04-21T04:49:30.900Z,21.59
2016-04-21T04:50:30.935Z,21.55
2016-04-21T04:51:30.921Z,21.55
2016-04-21T04:52:30.924Z,21.59
2016-04-21T04:53:30.927Z,21.59
2016-04-21T04:54:30.914Z,21.62
2016-04-21T04:55:30.917Z,21.52
2016-04-21T04:56:30.935Z,21.59
2016-04-21T04:57:30.969Z,21.53
2016-04-21T04:58:30.971Z,21.61
2016-04-21T04:59:30.959Z,21.62
2016-04-21T05:00:30.945Z,21.62
2016-04-21T05:01:30.980Z,21.66
2016-04-21T05:02:30.982Z,21.58
2016-04-21T05:03:30.985Z,21.62
2016-04-21T05:04:30.987Z,21.64
2016-04-21T05:05:31.006Z,21.55
2016-04-21T05:06:31.008Z,21.62
2016-04-21T05:07:30.995Z,21.53
2016-04-21T05:08:31.015Z,21.58
2016-04-21T05:09:31.001Z,21.59
2016-04-21T05:10:31.036Z,21.62
2016-04-21T05:11:31.038Z,21.66
2016-04-21T05:12:31.056Z,21.56
2016-04-21T05:13:31.043Z,21.58
2016-04-21T05:14:31.061Z,21.59
2016-04-21T05:15:31.049Z,21.53
2016-04-21T05:16:31.067Z,21.59
2016-04-21T05:17:31.069Z,21.56
2016-04-21T05:18:31.072Z,21.58
2016-04-21T05:19:31.075Z,21.53
2016-04-21T05:20:31.078Z,21.62
2016-04-21T05:21:31.111Z,21.59
2016-04-21T05:22:31.114Z,21.64
2016-04-21T05:23:31.116Z,21.62
2016-04-21T05:24:31.119Z,21.56
2016-04-21T05:25:31.107Z,21.58
2016-04-21T05:26:31.140Z,21.66
2016-04-21T05:27:31.143Z,21.62
2016-04-21T05:28:31.162Z,21.51
2016-04-21T05:29:31.149Z,21.66
2016-04-21T05:30:31.168Z,21.61
2016-04-21T05:31:31.170Z,21.64
2016-04-21T05:32:31.157Z,21.64
2016-04-21T05:33:31.274Z,21.62
2016-04-21T05:34:31.591Z,21.61
2016-04-21T05:35:31.014Z,21.55
2016-04-21T05:36:31.828Z,21.66
2016-04-21T05:37:31.228Z,21.62
2016-04-21T05:38:31.199Z,21.67
2016-04-21T05:39:31.218Z,21.64
2016-04-21T05:40:31.221Z,21.64
2016-04-21T05:41:31.207Z,21.62
2016-04-21T05:42:31.241Z,21.66
2016-04-21T05:43:31.245Z,21.64
2016-04-21T05:44:31.247Z,21.61
2016-04-21T05:45:31.264Z,21.64
2016-04-21T05:46:31.253Z,21.64
2016-04-21T05:47:31.270Z,21.62
2016-04-21T05:48:31.258Z,21.64
2016-04-21T05:49:31.308Z,21.58
2016-04-21T05:50:31.278Z,21.64
2016-04-21T05:51:31.281Z,21.68
2016-04-21T05:52:31.283Z,21.64
2016-04-21T05:53:31.303Z,21.67
2016-04-21T05:54:31.305Z,21.61
2016-04-21T05:55:31.323Z,21.62
2016-04-21T05:56:31.358Z,21.59
2016-04-21T05:57:31.329Z,21.64
2016-04-21T05:58:31.331Z,21.66
2016-04-21T05:59:31.335Z,21.59
2016-04-21T06:00:31.352Z,21.66
2016-04-21T06:01:31.355Z,21.62
2016-04-21T06:02:31.202Z,21.58
2016-04-21T06:03:31.345Z,21.59
2016-04-21T06:04:31.379Z,21.67
2016-04-21T06:05:31.382Z,21.59
2016-04-21T06:06:31.415Z,21.71
2016-04-21T06:07:31.402Z,21.71
2016-04-21T06:08:31.420Z,21.61
2016-04-21T06:09:31.407Z,21.61
2016-04-21T06:10:31.457Z,21.64
2016-04-21T06:11:31.429Z,21.7
2016-04-21T06:12:31.431Z,21.58
2016-04-21T06:13:31.418Z,21.61
2016-04-21T06:14:31.468Z,21.66
2016-04-21T06:15:31.440Z,21.68
2016-04-21T06:16:31.458Z,21.7
2016-04-21T06:17:31.461Z,21.71
2016-04-21T06:18:31.464Z,21.64
2016-04-21T06:19:31.481Z,21.7
2016-04-21T06:20:31.500Z,21.73
2016-04-21T06:21:31.486Z,21.67
2016-04-21T06:22:31.521Z,21.67
2016-04-21T06:23:31.492Z,21.62
2016-04-21T06:24:31.510Z,21.67
2016-04-21T06:25:31.497Z,21.62
2016-04-21T06:26:31.516Z,21.66
2016-04-21T06:27:31.519Z,21.66
2016-04-21T06:28:31.552Z,21.67
2016-04-21T06:29:31.555Z,21.66
2016-04-21T06:30:31.543Z,21.67
2016-04-21T06:31:31.561Z,21.68
2016-04-21T06:32:31.564Z,21.66
2016-04-21T06:33:31.582Z,21.66
2016-04-21T06:34:31.585Z,21.74
2016-04-21T06:35:31.587Z,21.66
2016-04-21T06:36:31.590Z,21.76
2016-04-21T06:37:31.593Z,21.77
2016-04-21T06:38:31.627Z,21.83
2016-04-21T06:39:31.613Z,21.78
2016-04-21T06:40:31.616Z,21.78
2016-04-21T06:41:31.619Z,21.82
2016-04-21T06:42:31.621Z,21.73
2016-04-21T06:43:31.623Z,21.76
2016-04-21T06:44:31.659Z,21.74
2016-04-21T06:45:31.645Z,21.77
2016-04-21T06:46:31.648Z,21.8
2016-04-21T06:47:31.682Z,21.77
2016-04-21T06:48:31.654Z,21.71
2016-04-21T06:49:31.687Z,21.83
2016-04-21T06:50:31.675Z,21.8
2016-04-21T06:51:31.709Z,21.77
2016-04-21T06:52:31.695Z,21.73
2016-04-21T06:53:31.714Z,21.85
2016-04-21T06:54:31.701Z,21.74
2016-04-21T06:55:31.735Z,21.8
2016-04-21T06:56:31.722Z,21.74
2016-04-21T06:57:31.741Z,21.82
2016-04-21T06:58:31.743Z,21.78
2016-04-21T06:59:31.746Z,21.77
2016-04-21T07:00:31.733Z,21.76
2016-04-21T07:01:31.766Z,21.83
2016-04-21T07:02:31.754Z,21.82
2016-04-21T07:03:31.757Z,21.74
2016-04-21T07:04:31.774Z,21.74
2016-04-21T07:05:31.777Z,21.9
2016-04-21T07:06:31.780Z,21.86
2016-04-21T07:07:31.813Z,21.8
2016-04-21T07:08:31.816Z,21.86
2016-04-21T07:09:31.819Z,21.86
2016-04-21T07:10:31.821Z,21.86
2016-04-21T07:11:31.840Z,21.92
2016-04-21T07:12:31.827Z,21.9
2016-04-21T07:13:31.846Z,21.92
2016-04-21T07:14:31.832Z,21.86
2016-04-21T07:15:31.851Z,21.92
2016-04-21T07:16:31.869Z,21.92
2016-04-21T07:17:31.887Z,21.94
2016-04-21T07:18:31.875Z,21.9
2016-04-21T07:19:31.892Z,21.93
2016-04-21T07:20:31.881Z,21.99
2016-04-21T07:21:31.898Z,21.94
2016-04-21T07:22:31.916Z,21.94
2016-04-21T07:23:31.920Z,21.94
2016-04-21T07:24:31.907Z,21.94
2016-04-21T07:25:31.941Z,21.96
2016-04-21T07:26:31.912Z,21.92
2016-04-21T07:27:31.931Z,21.99
2016-04-21T07:28:31.949Z,20.81
2016-04-21T07:29:31.936Z,20.53
2016-04-21T07:30:31.954Z,20.32
2016-04-21T07:31:31.957Z,20.46
2016-04-21T07:32:31.991Z,20.26
2016-04-21T07:33:31.977Z,19.47
2016-04-21T07:34:31.980Z,19.45
2016-04-21T07:35:31.982Z,19
2016-04-21T07:36:31.985Z,19.43
2016-04-21T07:37:31.989Z,19.9
2016-04-21T07:38:31.991Z,19.78
2016-04-21T07:39:31.993Z,19.82
2016-04-21T07:40:31.997Z,20.18
2016-04-21T07:41:32.015Z,20.25
2016-04-21T07:42:32.018Z,20.26
2016-04-21T07:43:32.021Z,20.49
2016-04-21T07:44:32.023Z,20.48
2016-04-21T07:45:32.041Z,20.66
2016-04-21T07:46:32.043Z,20.78
2016-04-21T07:47:32.046Z,20.98
2016-04-21T07:48:31.878Z,20.83
2016-04-21T07:49:32.036Z,20.48
2016-04-21T07:50:32.070Z,20
2016-04-21T07:51:32.057Z,20.37
2016-04-21T07:52:32.060Z,20.78
2016-04-21T07:53:32.078Z,20.49
2016-04-21T07:54:32.050Z,20.23
2016-04-21T07:55:32.100Z,20.05
2016-04-21T07:56:32.070Z,19.74
2016-04-21T07:57:32.089Z,19.45
2016-04-21T07:58:32.092Z,19.23
2016-04-21T07:59:31.969Z,19.09
2016-04-21T08:00:32.097Z,19.46
2016-04-21T08:01:32.130Z,19.56
2016-04-21T08:02:32.119Z,19.52
2016-04-21T08:03:32.121Z,19.24
2016-04-21T08:04:32.107Z,19.12
2016-04-21T08:05:32.111Z,19.23
2016-04-21T08:06:32.129Z,19.38
2016-04-21T08:07:32.147Z,19.5
2016-04-21T08:08:32.150Z,19.6
2016-04-21T08:09:32.121Z,19.19
2016-04-21T08:10:32.155Z,19.45
2016-04-21T08:11:32.157Z,19.17
2016-04-21T08:12:32.145Z,19.37
2016-04-21T08:13:32.148Z,19.45
2016-04-21T08:14:32.166Z,19.27
2016-04-21T08:15:32.154Z,19.43
2016-04-21T08:16:32.187Z,19.52
2016-04-21T08:17:32.159Z,19.67
2016-04-21T08:18:32.176Z,19.12
2016-04-21T08:19:32.180Z,19.2
2016-04-21T08:20:32.182Z,19.25
2016-04-21T08:21:32.170Z,18.87
2016-04-21T08:22:32.203Z,18.89
2016-04-21T08:23:32.205Z,19.06
2016-04-21T08:24:32.225Z,19.25
2016-04-21T08:25:32.195Z,19.38
2016-04-21T08:26:32.230Z,19.6
2016-04-21T08:27:32.278Z,19.85
2016-04-21T08:28:32.220Z,20.01
2016-04-21T08:29:32.206Z,20.12
2016-04-21T08:30:32.224Z,20.34
2016-04-21T08:31:32.228Z,20.27
2016-04-21T08:32:32.246Z,20.44
2016-04-21T08:33:32.249Z,20.48
2016-04-21T08:34:32.533Z,20.58
2016-04-21T08:35:32.269Z,20.61
2016-04-21T08:36:32.257Z,20.72
2016-04-21T08:37:32.274Z,20.78
2016-04-21T08:38:32.262Z,20.82
2016-04-21T08:39:32.265Z,20.91
2016-04-21T08:40:32.267Z,20.98
2016-04-21T08:41:32.286Z,20.96
2016-04-21T08:42:32.273Z,20.97
2016-04-21T08:43:32.291Z,21.11
2016-04-21T08:44:32.310Z,21.09
2016-04-21T08:45:32.296Z,21.15
2016-04-21T08:46:32.314Z,21.18
2016-04-21T08:47:32.318Z,21.23
2016-04-21T08:48:32.336Z,21.28
2016-04-21T08:49:32.338Z,21.27
2016-04-21T08:50:32.340Z,21.3
2016-04-21T08:51:32.343Z,21.34
2016-04-21T08:52:32.351Z,21.36
2016-04-21T08:53:32.370Z,21.36
2016-04-21T08:54:32.341Z,21.45
2016-04-21T08:55:32.359Z,21.41
2016-04-21T08:56:32.377Z,21.56
2016-04-21T08:57:32.364Z,21.46
2016-04-21T08:58:32.383Z,21.55
2016-04-21T08:59:32.401Z,21.55
2016-04-21T09:00:32.435Z,21.53
2016-04-21T09:01:32.392Z,21.66
2016-04-21T09:02:32.425Z,21.62
2016-04-21T09:03:32.427Z,21.7
2016-04-21T09:04:32.430Z,21.67
2016-04-21T09:05:32.433Z,21.66
2016-04-21T09:06:32.436Z,21.77
2016-04-21T09:07:32.438Z,21.78
2016-04-21T09:08:32.457Z,21.78
2016-04-21T09:09:31.710Z,21.83
2016-04-21T09:10:32.462Z,21.89
2016-04-21T09:11:32.465Z,21.93
2016-04-21T09:12:32.467Z,21.94
2016-04-21T09:13:32.502Z,21.89
2016-04-21T09:14:32.489Z,22
2016-04-21T09:15:32.491Z,22.05
2016-04-21T09:16:32.509Z,22.04
2016-04-21T09:17:32.528Z,22.12
2016-04-21T09:18:32.530Z,22.08
2016-04-21T09:19:32.534Z,22.16
2016-04-21T09:20:32.567Z,22.15
2016-04-21T09:21:32.539Z,22.18
2016-04-21T09:22:32.525Z,22.18
2016-04-21T09:23:32.559Z,22.2
2016-04-21T09:24:32.578Z,22.27
2016-04-21T09:25:32.597Z,22.27
2016-04-21T09:26:32.568Z,22.26
2016-04-21T09:27:32.587Z,22.22
2016-04-21T09:28:32.589Z,22.36
2016-04-21T09:29:32.608Z,22.36
2016-04-21T09:30:32.625Z,22.39
2016-04-21T09:31:32.613Z,22.31
2016-04-21T09:32:32.599Z,22.39
2016-04-21T09:33:32.664Z,22.39
2016-04-21T09:34:32.621Z,22.42
2016-04-21T09:35:32.624Z,22.46
2016-04-21T09:36:32.641Z,22.46
2016-04-21T09:37:32.644Z,22.51
2016-04-21T09:38:32.646Z,22.52
2016-04-21T09:39:32.510Z,22.59
2016-04-21T09:40:32.715Z,22.61
2016-04-21T09:41:32.686Z,22.6
2016-04-21T09:42:32.704Z,22.57
2016-04-21T09:43:32.707Z,22.69
2016-04-21T09:44:32.710Z,22.7
2016-04-21T09:45:32.728Z,22.7
2016-04-21T09:46:32.731Z,22.69
2016-04-21T09:47:32.577Z,22.73
2016-04-21T09:48:32.736Z,22.79
2016-04-21T09:49:32.755Z,22.81
2016-04-21T09:50:32.742Z,22.57
2016-04-21T09:51:32.619Z,22.61
2016-04-21T09:52:32.763Z,22.55
2016-04-21T09:53:32.781Z,22.51
2016-04-21T09:54:32.846Z,22.45
2016-04-21T09:55:32.787Z,22.41
2016-04-21T09:56:32.805Z,22.39
2016-04-21T09:57:32.792Z,22.36
2016-04-21T09:58:32.810Z,22.36
2016-04-21T09:59:32.798Z,22.41
2016-04-21T10:00:32.831Z,22.44
2016-04-21T10:01:32.819Z,22.45
2016-04-21T10:02:32.806Z,22.44
2016-04-21T10:03:32.683Z,22.44
2016-04-21T10:04:32.841Z,22.46
2016-04-21T10:05:32.844Z,22.55
2016-04-21T10:06:32.847Z,22.54
2016-04-21T10:07:32.881Z,22.57
2016-04-21T10:08:32.868Z,22.54
2016-04-21T10:09:32.746Z,22.51
2016-04-21T10:10:32.921Z,22.55
2016-04-21T10:11:32.968Z,22.57
2016-04-21T10:12:33.014Z,22.64
2016-04-21T10:13:33.061Z,22.7
2016-04-21T10:14:33.140Z,22.78
2016-04-21T10:15:33.181Z,22.78
2016-04-21T10:16:33.185Z,22.71
2016-04-21T10:17:33.203Z,22.71
2016-04-21T10:18:33.237Z,22.7
2016-04-21T10:19:33.241Z,22.69
2016-04-21T10:20:33.266Z,22.78
2016-04-21T10:21:33.274Z,22.78
2016-04-21T10:22:33.300Z,22.84
2016-04-21T10:23:33.324Z,22.84
2016-04-21T10:24:33.363Z,22.84
2016-04-21T10:25:33.306Z,22.81
2016-04-21T10:26:33.326Z,22.84
2016-04-21T10:27:33.331Z,22.86
2016-04-21T10:28:33.352Z,22.91
2016-04-21T10:29:33.357Z,22.97
2016-04-21T10:30:33.376Z,22.91
2016-04-21T10:31:33.395Z,22.91
2016-04-21T10:32:33.398Z,22.88
2016-04-21T10:33:33.385Z,22.89
2016-04-21T10:34:33.436Z,22.96
2016-04-21T10:35:33.392Z,22.89
2016-04-21T10:36:33.411Z,22.84
2016-04-21T10:37:33.430Z,22.79
2016-04-21T10:38:33.430Z,22.84
2016-04-21T10:39:33.464Z,22.92
2016-04-21T10:40:33.326Z,22.86
2016-04-21T10:41:33.438Z,22.96
2016-04-21T10:42:33.457Z,23.04
2016-04-21T10:43:33.460Z,22.99
2016-04-21T10:44:33.478Z,23.03
2016-04-21T10:45:33.481Z,23.14
2016-04-21T10:46:33.468Z,23.19
2016-04-21T10:47:33.470Z,23.25
2016-04-21T10:48:33.474Z,23.4
2016-04-21T10:49:33.539Z,23.38
2016-04-21T10:50:33.495Z,23.4
2016-04-21T10:51:33.513Z,23.42
2016-04-21T10:52:33.547Z,23.42
2016-04-21T10:53:33.534Z,23.48
2016-04-21T10:54:33.553Z,23.42
2016-04-21T10:55:33.570Z,23.55
2016-04-21T10:56:33.558Z,23.56
2016-04-21T10:57:33.560Z,23.56
2016-04-21T10:58:33.578Z,23.63
2016-04-21T10:59:33.581Z,23.67
2016-04-21T11:00:33.583Z,23.72
2016-04-21T11:01:33.602Z,23.75
2016-04-21T11:02:33.589Z,23.74
2016-04-21T11:03:33.592Z,23.78
2016-04-21T11:04:33.610Z,23.79
2016-04-21T11:05:33.644Z,23.79
2016-04-21T11:06:33.631Z,23.85
2016-04-21T11:07:33.650Z,23.94
2016-04-21T11:08:33.636Z,23.89
2016-04-21T11:09:33.671Z,23.94
2016-04-21T11:10:33.641Z,24.02
2016-04-21T11:11:33.676Z,24.07
2016-04-21T11:12:33.679Z,24.09
2016-04-21T11:13:33.697Z,24.07
2016-04-21T11:14:33.699Z,24.08
2016-04-21T11:15:33.702Z,24.18
2016-04-21T11:16:33.721Z,24.14
2016-04-21T11:17:33.724Z,24.15
2016-04-21T11:18:33.741Z,24.17
2016-04-21T11:19:33.744Z,24.15
2016-04-21T11:20:33.747Z,24.3
2016-04-21T11:21:33.750Z,24.21
2016-04-21T11:22:33.767Z,24.26
2016-04-21T11:23:33.787Z,24.33
2016-04-21T11:24:33.758Z,24.32
2016-04-21T11:25:33.792Z,24.33
2016-04-21T11:26:33.778Z,24.29
2016-04-21T11:27:33.812Z,24.39
2016-04-21T11:28:33.800Z,24.4
2016-04-21T11:29:33.818Z,24.55
2016-04-21T11:30:33.836Z,24.49
2016-04-21T11:31:33.839Z,24.49
2016-04-21T11:32:33.841Z,24.59
2016-04-21T11:33:33.844Z,24.59
2016-04-21T11:34:33.863Z,24.67
2016-04-21T11:35:33.850Z,24.59
2016-04-21T11:36:33.883Z,24.61
2016-04-21T11:37:33.871Z,24.77
2016-04-21T11:38:33.888Z,24.77
2016-04-21T11:39:33.891Z,24.75
2016-04-21T11:40:33.910Z,24.78
2016-04-21T11:41:33.913Z,24.77
2016-04-21T11:42:33.963Z,24.83
2016-04-21T11:43:33.949Z,24.85
2016-04-21T11:44:33.937Z,24.85
2016-04-21T11:45:33.955Z,24.87
2016-04-21T11:46:33.974Z,24.74
2016-04-21T11:47:33.960Z,24.85
2016-04-21T11:48:33.962Z,24.82
2016-04-21T11:49:33.981Z,24.8
2016-04-21T11:50:33.999Z,24.93
2016-04-21T11:51:34.002Z,24.86
2016-04-21T11:52:34.005Z,25.01
2016-04-21T11:53:34.101Z,25
2016-04-21T11:54:34.009Z,24.93
2016-04-21T11:55:34.012Z,25.04
2016-04-21T11:56:34.047Z,25.05
2016-04-21T11:57:34.050Z,25.08
2016-04-21T11:58:34.068Z,25.07
2016-04-21T11:59:34.055Z,25.12
2016-04-21T12:00:34.089Z,25.09
2016-04-21T12:01:34.075Z,25.22
2016-04-21T12:02:34.078Z,25.19
2016-04-21T12:03:34.097Z,25.19
2016-04-21T12:04:34.116Z,25.22
2016-04-21T12:05:34.119Z,25.27
2016-04-21T12:06:34.136Z,25.26
2016-04-21T12:07:34.139Z,25.32
2016-04-21T12:08:34.157Z,25.34
2016-04-21T12:09:34.144Z,25.37
2016-04-21T12:10:34.178Z,25.41
2016-04-21T12:11:34.165Z,25.45
2016-04-21T12:12:34.183Z,25.39
2016-04-21T12:13:34.186Z,25.45
2016-04-21T12:14:34.188Z,25.49
2016-04-21T12:15:34.207Z,25.47
2016-04-21T12:16:34.226Z,25.39
2016-04-21T12:17:34.213Z,25.51
2016-04-21T12:18:34.231Z,25.57
2016-04-21T12:19:34.234Z,25.52
2016-04-21T12:20:34.267Z,25.54
2016-04-21T12:21:34.239Z,25.59
2016-04-21T12:22:34.273Z,25.52
2016-04-21T12:23:34.291Z,25.6
2016-04-21T12:24:34.295Z,25.66
2016-04-21T12:25:34.281Z,25.63
2016-04-21T12:26:34.315Z,25.69
2016-04-21T12:27:34.317Z,25.66
2016-04-21T12:28:34.321Z,25.64
2016-04-21T12:29:34.339Z,25.71
2016-04-21T12:30:34.341Z,25.81
2016-04-21T12:31:34.328Z,25.76
2016-04-21T12:32:34.347Z,25.78
2016-04-21T12:33:34.350Z,25.85
2016-04-21T12:34:34.367Z,25.78
2016-04-21T12:35:34.386Z,25.81
2016-04-21T12:36:34.404Z,25.85
2016-04-21T12:37:34.391Z,25.76
2016-04-21T12:38:34.425Z,25.82
2016-04-21T12:39:34.428Z,25.78
2016-04-21T12:40:34.430Z,25.78
2016-04-21T12:41:34.433Z,25.85
2016-04-21T12:42:34.468Z,25.86
2016-04-21T12:43:34.455Z,25.88
2016-04-21T12:44:34.473Z,25.86
2016-04-21T12:45:34.460Z,25.91
2016-04-21T12:46:34.478Z,25.88
2016-04-21T12:47:34.496Z,25.86
2016-04-21T12:48:34.515Z,25.89
2016-04-21T12:49:34.501Z,25.86
2016-04-21T12:50:34.536Z,25.88
2016-04-21T12:51:34.523Z,25.96
2016-04-21T12:52:34.526Z,25.94
2016-04-21T12:53:34.560Z,25.88
2016-04-21T12:54:34.546Z,25.89
2016-04-21T12:55:34.549Z,25.93